This is the latest recevied weather packets stored in our database for station/object N8HON. If no packets are shown the sender has not sent any weather packets the latest 10 day(s).
| Time | Temp. | Humidity | Pressure | Rain* | Wind** | Luminosity | Snow |
|---|---|---|---|---|---|---|---|
| 1777812131 | 7.22° C | 48% | 1015.8 hPa | 0 mm | - | 247 W/m² | - |
| 1777811829 | 6.67° C | 51% | 1015.8 hPa | 0 mm | - | 236 W/m² | - |
| 1777811527 | 6.67° C | 52% | 1015.7 hPa | 0 mm | - | 229 W/m² | - |
| 1777811222 | 6.11° C | 54% | 1015.9 hPa | 0 mm | - | 189 W/m² | - |
| 1777810920 | 6.11° C | 53% | 1015.7 hPa | 0 mm | - | 186 W/m² | - |
| 1777810616 | 6.11° C | 53% | 1015.9 hPa | 0 mm | - | 169 W/m² | - |
| 1777810313 | 5.56° C | 55% | 1015.7 hPa | 0 mm | - | 165 W/m² | - |
| 1777810008 | 5.56° C | 57% | 1015.5 hPa | 0 mm | - | 144 W/m² | - |
| 1777809707 | 5.56° C | 56% | 1015.6 hPa | 0 mm | - | 140 W/m² | - |
| 1777809404 | 5.56° C | 55% | 1015.6 hPa | 0 mm | - | 128 W/m² | - |
| 1777809102 | 5° C | 58% | 1015.6 hPa | 0 mm | - | 120 W/m² | - |
| 1777808799 | 4.44° C | 59% | 1015.4 hPa | 0 mm | - | 100 W/m² | - |
| 1777808496 | 5° C | 58% | 1015.4 hPa | 0 mm | - | 67 W/m² | - |
| 1777808193 | 5° C | 59% | 1015.4 hPa | 0 mm | - | 50 W/m² | - |
| 1777807892 | 5° C | 56% | 1015.6 hPa | 0 mm | - | 32 W/m² | - |
| 1777807590 | 5° C | 56% | 1015.2 hPa | 0 mm | - | 32 W/m² | - |
| 1777807286 | 5.56° C | 57% | 1015.2 hPa | 0 mm | - | 39 W/m² | - |
| 1777806982 | 5° C | 59% | 1015 hPa | 0 mm | - | 29 W/m² | - |
| 1777806679 | 4.44° C | 61% | 1015 hPa | 0 mm | - | 32 W/m² | - |
| 1777806375 | 3.89° C | 62% | 1015 hPa | 0 mm | - | 30 W/m² | - |
| 1777806072 | 3.89° C | 63% | 1015 hPa | 0 mm | - | 23 W/m² | - |
| 1777805768 | 2.78° C | 64% | 1014.8 hPa | 0 mm | - | 23 W/m² | - |
| 1777805466 | 2.78° C | 64% | 1014.6 hPa | 0 mm | - | 19 W/m² | - |
| 1777805164 | 2.22° C | 66% | 1014.5 hPa | 0 mm | - | 16 W/m² | - |
| 1777804861 | 1.67° C | 66% | 1014.4 hPa | 0 mm | - | 13 W/m² | - |
* Rain latest hour (hover to see other rain measurements)
** Current wind speed in m/s (hover to see current wind gust speed)